Time;durP1;ratioP1;P1;durP2;ratioP2;P2;SDS_P1;SDS_P2;PMS_P1;PMS_P2;Temp;Humidity;BMP_temperature;BMP_pressure;BME280_temperature;BME280_humidity;BME280_pressure;Samples;Min_cycle;Max_cycle;Signal;HPM_P1;HPM_P2
2022/06/17 00:01:37;;;;;;;4.15;1.02;;;15.00;93.40;;;;;;5015148;28;20164;-77
2022/06/17 00:04:03;;;;;;;1.52;1.00;;;15.00;93.70;;;;;;5014215;28;20187;-78
2022/06/17 00:06:48;;;;;;;3.15;1.05;;;15.00;93.60;;;;;;5016071;28;20278;-77
2022/06/17 00:09:17;;;;;;;2.60;1.08;;;15.10;93.50;;;;;;5014733;28;20203;-78
2022/06/17 00:11:43;;;;;;;6.43;1.10;;;15.00;93.60;;;;;;5015839;28;20243;-78
2022/06/17 00:14:15;;;;;;;2.28;1.30;;;15.00;93.80;;;;;;5015931;28;20698;-78
2022/06/17 00:16:42;;;;;;;2.00;1.10;;;14.90;93.60;;;;;;5014616;28;20210;-78
2022/06/17 00:19:08;;;;;;;2.80;1.17;;;14.90;94.30;;;;;;5014751;28;20634;-77
2022/06/17 00:21:37;;;;;;;7.05;1.67;;;14.90;94.00;;;;;;5014636;28;20179;-77
2022/06/17 00:24:14;;;;;;;3.55;1.00;;;14.80;94.10;;;;;;5013859;28;20206;-77
2022/06/17 00:26:39;;;;;;;3.05;1.33;;;14.70;94.90;;;;;;5014035;28;20229;-78
2022/06/17 00:29:07;;;;;;;1.52;1.00;;;14.50;95.00;;;;;;5015689;28;20550;-78
2022/06/17 00:31:33;;;;;;;1.98;1.05;;;14.30;96.00;;;;;;5013922;28;20193;-78
2022/06/17 00:33:59;;;;;;;1.50;0.90;;;14.20;95.60;;;;;;5014151;28;20179;-79
2022/06/17 00:36:24;;;;;;;1.50;0.80;;;14.30;95.50;;;;;;4996022;28;20223;-79
2022/06/17 00:38:52;;;;;;;2.10;1.10;;;14.40;95.70;;;;;;4996089;28;20203;-78
2022/06/17 00:41:33;;;;;;;2.20;1.08;;;14.40;95.60;;;;;;4994637;28;20168;-78
2022/06/17 00:44:18;;;;;;;2.15;1.20;;;14.30;95.60;;;;;;4995672;28;20172;-78
2022/06/17 00:47:06;;;;;;;1.65;1.17;;;14.30;96.20;;;;;;4995466;28;20230;-78
2022/06/17 00:49:47;;;;;;;1.73;1.50;;;14.20;96.00;;;;;;4995715;28;20215;-78
2022/06/17 00:52:25;;;;;;;2.90;1.30;;;14.30;95.80;;;;;;4994165;28;20283;-77
2022/06/17 00:55:01;;;;;;;3.08;1.13;;;14.30;95.90;;;;;;5013231;28;20637;-77
2022/06/17 00:57:38;;;;;;;2.33;1.00;;;14.30;95.60;;;;;;5013819;28;20273;-79
2022/06/17 01:00:22;;;;;;;3.42;1.20;;;14.30;95.60;;;;;;5015215;28;20577;-78
2022/06/17 01:02:53;;;;;;;1.80;1.17;;;14.30;95.60;;;;;;5013910;28;20183;-78
2022/06/17 01:05:24;;;;;;;4.65;1.33;;;14.40;95.40;;;;;;5013798;28;20183;-77
2022/06/17 01:08:01;;;;;;;1.95;1.08;;;14.40;95.30;;;;;;5013725;28;20179;-78
2022/06/17 01:10:28;;;;;;;2.15;1.10;;;14.50;94.80;;;;;;5013653;28;20614;-77
2022/06/17 01:13:05;;;;;;;2.60;1.15;;;14.20;95.20;;;;;;5014494;28;20177;-77
2022/06/17 01:15:33;;;;;;;3.05;1.30;;;14.00;95.50;;;;;;5015030;28;20617;-79
2022/06/17 01:18:00;;;;;;;2.92;1.10;;;14.10;95.40;;;;;;5013579;28;20175;-77
2022/06/17 01:20:28;;;;;;;3.80;1.25;;;14.10;95.40;;;;;;5014743;28;20175;-77
2022/06/17 01:22:59;;;;;;;3.15;1.40;;;13.90;96.20;;;;;;5014221;28;20167;-78
2022/06/17 01:25:27;;;;;;;1.90;1.50;;;13.60;97.00;;;;;;5012683;28;20219;-77
2022/06/17 01:28:05;;;;;;;2.72;1.23;;;13.50;96.80;;;;;;5014282;28;20175;-78
2022/06/17 01:30:38;;;;;;;2.83;1.23;;;13.50;97.10;;;;;;5014758;28;20179;-78
2022/06/17 01:33:09;;;;;;;1.30;1.17;;;13.60;96.50;;;;;;5013353;28;20168;-77
2022/06/17 01:35:44;;;;;;;1.60;1.13;;;13.60;96.10;;;;;;5014321;28;20160;-78
2022/06/17 01:38:11;;;;;;;5.05;1.23;;;13.60;96.30;;;;;;5013277;28;20494;-77
2022/06/17 01:40:37;;;;;;;1.42;1.20;;;13.70;96.30;;;;;;5013122;28;20229;-78
2022/06/17 01:43:06;;;;;;;2.25;1.30;;;13.50;96.20;;;;;;5014076;28;20163;-78
2022/06/17 01:45:34;;;;;;;2.97;1.30;;;13.30;96.80;;;;;;5014161;28;20210;-78
2022/06/17 01:48:00;;;;;;;4.38;1.40;;;13.30;97.00;;;;;;5012633;28;20234;-77
2022/06/17 01:50:27;;;;;;;3.90;1.45;;;13.20;97.10;;;;;;5014152;28;20182;-77
2022/06/17 01:53:05;;;;;;;2.00;1.20;;;13.30;97.00;;;;;;5012873;28;20195;-78
2022/06/17 01:55:41;;;;;;;3.90;1.20;;;13.30;96.90;;;;;;5012552;28;20197;-78
2022/06/17 01:58:26;;;;;;;2.38;1.30;;;13.20;97.90;;;;;;5014116;28;20201;-77
2022/06/17 02:00:52;;;;;;;2.15;1.15;;;13.20;97.10;;;;;;5014119;28;20602;-78
2022/06/17 02:03:26;;;;;;;1.50;1.00;;;13.10;97.10;;;;;;5014191;28;20194;-77
2022/06/17 02:05:58;;;;;;;2.45;1.48;;;13.20;97.00;;;;;;5012089;28;20170;-77
2022/06/17 02:08:24;;;;;;;1.85;1.23;;;13.20;97.30;;;;;;5012749;28;20211;-77
2022/06/17 02:10:51;;;;;;;2.50;1.48;;;13.00;97.50;;;;;;5012494;28;20610;-77
2022/06/17 02:13:17;;;;;;;2.67;1.17;;;13.00;97.40;;;;;;5012388;28;20693;-78
2022/06/17 02:15:44;;;;;;;1.33;1.10;;;13.00;97.60;;;;;;5013367;28;20625;-77
2022/06/17 02:18:15;;;;;;;4.50;1.40;;;13.00;97.40;;;;;;5012745;28;20206;-78
2022/06/17 02:20:41;;;;;;;5.38;1.63;;;12.90;97.50;;;;;;5012670;28;20233;-78
2022/06/17 02:23:08;;;;;;;3.60;1.40;;;12.80;97.80;;;;;;5011506;28;20179;-77
2022/06/17 02:25:43;;;;;;;2.78;1.45;;;12.70;98.30;;;;;;5013457;28;20183;-77
2022/06/17 02:28:09;;;;;;;2.35;1.38;;;12.60;99.00;;;;;;5012307;28;20264;-77
2022/06/17 02:30:36;;;;;;;1.33;1.17;;;12.70;98.40;;;;;;5012406;28;20573;-78
2022/06/17 02:33:04;;;;;;;3.55;1.35;;;12.80;98.10;;;;;;5012866;28;20190;-77
2022/06/17 02:35:42;;;;;;;3.78;1.48;;;12.90;97.90;;;;;;5012224;28;20211;-78
2022/06/17 02:38:16;;;;;;;4.47;1.50;;;12.90;97.80;;;;;;5013547;28;20172;-78
2022/06/17 02:40:52;;;;;;;4.00;1.50;;;13.00;97.60;;;;;;5013677;28;20211;-77
2022/06/17 02:43:22;;;;;;;2.67;1.23;;;12.90;97.80;;;;;;5013415;28;20167;-78
2022/06/17 02:45:58;;;;;;;1.75;1.42;;;12.70;98.40;;;;;;5012149;28;20172;-77
2022/06/17 02:48:31;;;;;;;3.58;1.33;;;12.50;99.60;;;;;;5013324;28;20249;-77
2022/06/17 02:50:59;;;;;;;2.65;1.50;;;12.50;99.00;;;;;;5012321;28;20229;-78
2022/06/17 02:53:35;;;;;;;2.50;1.40;;;12.60;99.10;;;;;;5011596;28;20237;-77
2022/06/17 02:56:05;;;;;;;1.30;1.10;;;12.70;98.80;;;;;;5448627;23;20235;-76
2022/06/17 02:58:31;;;;;;;2.05;1.42;;;12.70;99.40;;;;;;5000659;28;20195;-78
2022/06/17 03:00:58;;;;;;;3.65;1.80;;;12.70;99.90;;;;;;5011902;28;20202;-79
2022/06/17 03:03:25;;;;;;;4.90;1.52;;;12.50;99.90;;;;;;5012119;28;20210;-78
2022/06/17 03:05:51;;;;;;;2.20;1.70;;;12.40;99.90;;;;;;5013184;28;20171;-76
2022/06/17 03:08:29;;;;;;;3.03;1.70;;;12.60;99.90;;;;;;5012067;28;20229;-76
2022/06/17 03:10:59;;;;;;;3.03;1.70;;;12.60;99.80;;;;;;5012762;28;20179;-77
2022/06/17 03:13:41;;;;;;;1.55;1.33;;;12.50;99.80;;;;;;5011855;28;20274;-77
2022/06/17 03:16:11;;;;;;;2.38;1.50;;;12.50;99.70;;;;;;5012065;28;20172;-78
2022/06/17 03:18:37;;;;;;;4.82;1.90;;;12.60;99.90;;;;;;5013496;28;20167;-78
2022/06/17 03:21:06;;;;;;;3.10;1.67;;;12.40;99.90;;;;;;5013333;28;20167;-78
2022/06/17 03:23:37;;;;;;;2.38;1.60;;;12.40;99.90;;;;;;5012813;28;20211;-78
2022/06/17 03:26:14;;;;;;;2.08;1.60;;;12.20;99.90;;;;;;5011170;28;20705;-78
2022/06/17 03:28:48;;;;;;;3.92;1.65;;;12.20;99.90;;;;;;5013325;28;20206;-79
2022/06/17 03:31:25;;;;;;;3.05;1.70;;;12.20;99.90;;;;;;5013439;28;20170;-80
2022/06/17 03:34:03;;;;;;;4.40;1.80;;;12.40;99.90;;;;;;5011984;28;20171;-79
2022/06/17 03:36:36;;;;;;;4.40;1.52;;;12.40;99.90;;;;;;5016624;28;20163;-78
2022/06/17 03:39:11;;;;;;;2.30;1.70;;;12.30;99.90;;;;;;5016809;28;20255;-79
2022/06/17 03:42:02;;;;;;;2.35;1.90;;;12.30;99.90;;;;;;5015033;28;20686;-79
2022/06/17 03:44:39;;;;;;;4.03;1.95;;;12.10;99.90;;;;;;5016366;28;20171;-78
2022/06/17 03:47:16;;;;;;;3.22;1.88;;;12.20;99.90;;;;;;5015685;28;20175;-77
2022/06/17 03:49:56;;;;;;;4.18;1.90;;;12.30;99.90;;;;;;5016481;28;20645;-79
2022/06/17 03:52:37;;;;;;;2.78;1.90;;;12.40;99.90;;;;;;5016416;28;20183;-77
2022/06/17 03:55:04;;;;;;;4.50;2.10;;;12.50;99.90;;;;;;5014733;28;20186;-79
2022/06/17 03:57:31;;;;;;;3.47;2.20;;;12.60;99.90;;;;;;5015253;28;20314;-80
2022/06/17 03:59:59;;;;;;;3.97;2.22;;;12.50;99.90;;;;;;5015124;28;20186;-79
2022/06/17 04:02:29;;;;;;;3.60;2.03;;;12.40;99.90;;;;;;5007655;28;20191;-79
2022/06/17 04:04:56;;;;;;;4.07;2.40;;;12.40;99.90;;;;;;5013020;28;20294;-79
2022/06/17 04:07:22;;;;;;;3.10;2.20;;;12.40;99.90;;;;;;5014939;28;20190;-78
2022/06/17 04:09:50;;;;;;;3.47;2.10;;;12.50;99.90;;;;;;5014553;28;20215;-79
2022/06/17 04:12:23;;;;;;;5.32;2.00;;;12.50;99.90;;;;;;5015882;28;20183;-79
2022/06/17 04:15:14;;;;;;;5.13;2.20;;;12.60;99.90;;;;;;5015961;28;20159;-79
2022/06/17 04:17:42;;;;;;;5.20;2.50;;;12.60;99.90;;;;;;5015953;28;20167;-79
2022/06/17 04:20:23;;;;;;;5.32;2.33;;;12.60;99.90;;;;;;5014640;28;20179;-79
2022/06/17 04:22:52;;;;;;;6.38;2.22;;;12.60;99.90;;;;;;5015468;28;20539;-78
2022/06/17 04:25:47;;;;;;;7.85;2.58;;;12.70;99.90;;;;;;5015766;28;20179;-79
2022/06/17 04:28:18;;;;;;;2.47;2.00;;;12.70;99.90;;;;;;4994593;28;20223;-79
2022/06/17 04:30:51;;;;;;;3.38;2.40;;;12.70;99.90;;;;;;4994677;28;20560;-78
2022/06/17 04:33:23;;;;;;;5.85;2.80;;;12.80;99.90;;;;;;4996248;28;20314;-79
2022/06/17 04:35:58;;;;;;;3.28;2.38;;;12.90;99.90;;;;;;4996374;28;20176;-79
2022/06/17 04:38:25;;;;;;;7.90;2.85;;;13.00;99.90;;;;;;4996138;28;20164;-80
2022/06/17 04:40:55;;;;;;;3.90;2.38;;;13.20;99.90;;;;;;4995908;28;20164;-79
2022/06/17 04:43:33;;;;;;;3.92;2.40;;;13.30;99.90;;;;;;4995989;28;20160;-80
2022/06/17 04:46:05;;;;;;;3.72;2.67;;;13.50;99.90;;;;;;4995154;28;20599;-79
2022/06/17 04:48:31;;;;;;;5.93;2.50;;;13.70;99.90;;;;;;4995838;28;20208;-79
2022/06/17 04:50:57;;;;;;;4.28;2.63;;;14.00;99.90;;;;;;4995916;28;20653;-79
2022/06/17 04:53:24;;;;;;;5.20;2.70;;;14.10;99.90;;;;;;5006960;28;20220;-80
2022/06/17 04:55:50;;;;;;;6.30;2.75;;;14.20;99.90;;;;;;5031441;28;20264;-78
2022/06/17 04:58:20;;;;;;;4.72;2.97;;;14.30;99.90;;;;;;5014654;28;20179;-78
2022/06/17 05:00:49;;;;;;;3.92;2.80;;;14.40;99.90;;;;;;5014067;28;20168;-78
2022/06/17 05:03:16;;;;;;;4.95;2.72;;;14.50;99.90;;;;;;5015287;28;20180;-79
2022/06/17 05:05:44;;;;;;;3.80;2.97;;;14.60;99.90;;;;;;5015240;28;20206;-78
2022/06/17 05:08:25;;;;;;;3.28;2.97;;;14.70;99.90;;;;;;5013647;28;20187;-79
2022/06/17 05:11:14;;;;;;;4.50;2.80;;;14.80;99.90;;;;;;5013966;28;20206;-78
2022/06/17 05:13:48;;;;;;;5.80;2.83;;;14.80;99.90;;;;;;5014423;28;20524;-79
2022/06/17 05:16:14;;;;;;;4.78;2.92;;;14.90;99.90;;;;;;5014756;28;20656;-79
2022/06/17 05:18:43;;;;;;;4.13;2.88;;;14.90;99.90;;;;;;5014842;28;20176;-79
2022/06/17 05:21:18;;;;;;;4.22;2.42;;;15.00;99.90;;;;;;5014966;28;20214;-78
2022/06/17 05:23:44;;;;;;;6.78;2.88;;;15.10;99.90;;;;;;5013633;28;20210;-79
2022/06/17 05:26:10;;;;;;;5.38;2.67;;;15.10;99.90;;;;;;5014329;28;20218;-79
2022/06/17 05:28:35;;;;;;;4.40;2.83;;;15.20;99.90;;;;;;5013430;28;20203;-78
2022/06/17 05:31:01;;;;;;;9.10;3.25;;;15.30;99.90;;;;;;5014805;28;20218;-79
2022/06/17 05:33:28;;;;;;;5.32;3.17;;;15.30;99.90;;;;;;5013274;28;20225;-79
2022/06/17 05:35:54;;;;;;;5.00;2.97;;;15.40;99.90;;;;;;5013251;28;20266;-79
2022/06/17 05:38:20;;;;;;;4.72;2.72;;;15.40;99.90;;;;;;5014642;28;20258;-79
2022/06/17 05:40:46;;;;;;;6.22;3.00;;;15.50;99.90;;;;;;5014603;28;20190;-79
2022/06/17 05:43:12;;;;;;;6.88;2.75;;;15.50;99.90;;;;;;5014433;28;20179;-79
2022/06/17 05:45:39;;;;;;;4.70;2.78;;;15.60;99.90;;;;;;5013036;28;20175;-79
2022/06/17 05:48:05;;;;;;;9.95;3.58;;;15.60;99.90;;;;;;5012323;28;20202;-79
2022/06/17 05:50:31;;;;;;;5.22;2.47;;;15.70;99.90;;;;;;5014616;28;20518;-79
2022/06/17 05:53:04;;;;;;;7.25;3.15;;;15.70;99.90;;;;;;5013085;28;20527;-79
2022/06/17 05:55:31;;;;;;;5.68;2.60;;;15.70;99.90;;;;;;5012700;28;20175;-78
2022/06/17 05:57:57;;;;;;;5.63;2.90;;;15.80;99.90;;;;;;5013614;28;20215;-79
2022/06/17 06:00:24;;;;;;;4.65;2.90;;;15.80;99.90;;;;;;5014259;28;20175;-79
2022/06/17 06:02:54;;;;;;;7.22;3.17;;;15.80;99.90;;;;;;5014286;28;20163;-78
2022/06/17 06:05:21;;;;;;;5.28;2.90;;;15.90;99.90;;;;;;5012957;28;20175;-78
2022/06/17 06:07:48;;;;;;;6.38;2.78;;;15.90;99.90;;;;;;5014213;28;20490;-78
2022/06/17 06:10:15;;;;;;;4.97;2.85;;;16.00;99.90;;;;;;5014031;28;20288;-78
2022/06/17 06:15:42;;;;;;;6.60;3.08;;;16.30;99.90;;;;;;5014028;28;20199;-79
2022/06/17 06:18:10;;;;;;;4.75;2.60;;;16.30;99.90;;;;;;5014130;28;20190;-78
2022/06/17 06:20:36;;;;;;;8.98;3.58;;;16.40;99.90;;;;;;5014065;28;20516;-79
2022/06/17 06:23:02;;;;;;;5.10;3.25;;;16.50;99.90;;;;;;5013082;28;20183;-78
2022/06/17 06:25:28;;;;;;;5.60;3.20;;;16.60;99.90;;;;;;5014027;28;20175;-79
2022/06/17 06:27:54;;;;;;;6.75;3.00;;;16.70;99.60;;;;;;5012479;28;20690;-79
2022/06/17 06:30:29;;;;;;;4.05;2.70;;;16.70;99.90;;;;;;5012615;28;20330;-78
2022/06/17 06:32:59;;;;;;;4.78;2.33;;;16.80;99.20;;;;;;5014012;28;20167;-79
2022/06/17 06:35:34;;;;;;;5.72;2.92;;;16.90;99.10;;;;;;5013549;28;20239;-78
2022/06/17 06:38:01;;;;;;;9.02;2.85;;;17.00;99.30;;;;;;5013921;28;20202;-77
2022/06/17 06:40:28;;;;;;;6.53;2.60;;;17.10;98.40;;;;;;5012657;28;20189;-78
2022/06/17 06:42:54;;;;;;;10.18;2.70;;;17.20;97.50;;;;;;5013691;28;20628;-78
2022/06/17 06:45:29;;;;;;;3.22;2.53;;;17.40;96.70;;;;;;5013573;28;20559;-78
2022/06/17 06:47:59;;;;;;;9.10;2.20;;;17.40;96.50;;;;;;5011189;28;20216;-78
2022/06/17 06:50:28;;;;;;;5.03;2.40;;;17.50;96.20;;;;;;4994129;28;20272;-78
2022/06/17 06:52:54;;;;;;;4.80;2.53;;;17.70;96.30;;;;;;4994124;28;20165;-78
2022/06/17 06:55:19;;;;;;;5.50;2.35;;;17.80;95.60;;;;;;5000748;28;20183;-77
2022/06/17 06:57:49;;;;;;;3.35;2.00;;;17.90;94.90;;;;;;5032899;28;20222;-79
2022/06/17 07:00:36;;;;;;;3.42;1.88;;;18.10;95.10;;;;;;5033390;28;20214;-78
2022/06/17 07:03:03;;;;;;;5.47;2.60;;;18.30;95.20;;;;;;5033347;28;20165;-79
2022/06/17 07:05:29;;;;;;;3.65;2.15;;;18.50;94.10;;;;;;5033084;28;20185;-78
2022/06/17 07:07:55;;;;;;;6.28;2.40;;;18.60;93.50;;;;;;5032131;28;20182;-78
2022/06/17 07:10:30;;;;;;;5.75;2.25;;;18.70;93.70;;;;;;5035564;28;20221;-79
2022/06/17 07:12:56;;;;;;;5.35;2.17;;;18.80;93.80;;;;;;5036816;28;20163;-78
2022/06/17 07:15:23;;;;;;;3.70;2.25;;;19.00;93.60;;;;;;5036906;28;20209;-78
2022/06/17 07:18:00;;;;;;;4.60;2.17;;;19.00;93.40;;;;;;5033497;28;20179;-78
2022/06/17 07:20:37;;;;;;;4.20;2.10;;;19.20;92.90;;;;;;5017214;28;20197;-78
2022/06/17 07:23:07;;;;;;;4.85;2.33;;;19.40;92.40;;;;;;5017169;28;20221;-78
2022/06/17 07:25:34;;;;;;;5.28;2.53;;;19.50;92.60;;;;;;5015645;28;20182;-77
2022/06/17 07:28:00;;;;;;;3.22;2.50;;;19.60;92.40;;;;;;5016692;28;20175;-77
2022/06/17 07:30:28;;;;;;;5.13;2.72;;;19.80;92.70;;;;;;5017154;28;20172;-78
2022/06/17 07:32:54;;;;;;;8.95;2.70;;;19.90;91.90;;;;;;5016895;28;20167;-77
2022/06/17 07:35:20;;;;;;;5.40;2.60;;;20.00;91.80;;;;;;5015515;28;20201;-78
2022/06/17 07:40:31;;;;;;;5.65;2.53;;;20.30;92.00;;;;;;5016723;28;20178;-78
2022/06/17 07:42:57;;;;;;;4.90;2.42;;;20.40;91.80;;;;;;5016630;28;20202;-78
2022/06/17 07:45:24;;;;;;;7.50;2.20;;;20.50;91.20;;;;;;5016515;28;20319;-78
2022/06/17 07:47:51;;;;;;;5.72;2.38;;;20.60;91.70;;;;;;5016852;28;20195;-78
2022/06/17 07:50:27;;;;;;;3.75;2.30;;;20.70;90.70;;;;;;5016597;28;20273;-78
2022/06/17 07:52:53;;;;;;;5.97;2.20;;;20.80;90.90;;;;;;5016528;28;20186;-78
2022/06/17 07:55:19;;;;;;;5.28;2.22;;;20.90;90.30;;;;;;5015350;28;20187;-78
2022/06/17 07:57:45;;;;;;;4.93;2.03;;;20.90;90.00;;;;;;5016121;28;20310;-78
2022/06/17 08:00:43;;;;;;;4.25;2.05;;;21.00;90.50;;;;;;5016368;28;20246;-78
2022/06/17 08:03:09;;;;;;;3.42;1.90;;;21.00;89.70;;;;;;5014489;28;20191;-78
2022/06/17 08:05:37;;;;;;;4.53;2.00;;;21.10;90.40;;;;;;5016437;28;20179;-79
2022/06/17 08:08:04;;;;;;;5.43;1.95;;;21.20;90.40;;;;;;5016116;28;20191;-78
2022/06/17 08:10:33;;;;;;;4.40;1.88;;;21.40;88.70;;;;;;5016599;28;20189;-78
2022/06/17 08:12:59;;;;;;;4.57;2.38;;;21.50;89.80;;;;;;5016274;28;20160;-79
2022/06/17 08:15:25;;;;;;;4.38;2.13;;;21.50;87.40;;;;;;5015817;28;20194;-79
2022/06/17 08:17:52;;;;;;;3.92;1.95;;;21.70;88.90;;;;;;5016037;28;20191;-78
2022/06/17 08:20:26;;;;;;;2.92;1.90;;;21.80;86.80;;;;;;5015727;28;20199;-79
2022/06/17 08:22:52;;;;;;;3.13;1.75;;;21.90;86.10;;;;;;5014083;28;20167;-79
2022/06/17 08:25:18;;;;;;;2.05;1.60;;;21.90;86.40;;;;;;5014495;28;20225;-79
2022/06/17 08:27:45;;;;;;;2.90;1.80;;;22.10;89.60;;;;;;5015624;28;20171;-79
2022/06/17 08:30:12;;;;;;;5.90;2.20;;;22.10;87.50;;;;;;5014584;28;20294;-78
2022/06/17 08:32:48;;;;;;;4.50;2.40;;;22.20;85.00;;;;;;5015845;28;20159;-79
2022/06/17 08:35:16;;;;;;;3.03;2.00;;;22.20;84.20;;;;;;5015785;28;20155;-79
2022/06/17 08:37:43;;;;;;;2.78;1.52;;;22.20;85.50;;;;;;5016115;28;20242;-78
2022/06/17 08:40:36;;;;;;;5.07;1.83;;;22.30;86.20;;;;;;5015808;28;20202;-78
2022/06/17 08:43:25;;;;;;;7.07;2.42;;;22.40;85.80;;;;;;5015424;28;20185;-79
2022/06/17 08:46:18;;;;;;;2.28;1.70;;;22.40;82.40;;;;;;5015932;28;20222;-78
2022/06/17 08:49:17;;;;;;;3.60;1.50;;;22.40;84.10;;;;;;5014085;28;20211;-79
2022/06/17 08:51:51;;;;;;;4.43;1.75;;;22.60;86.80;;;;;;5015550;28;20182;-78
2022/06/17 08:54:25;;;;;;;3.40;1.60;;;22.70;86.10;;;;;;5015497;28;20173;-79
2022/06/17 08:57:06;;;;;;;3.50;1.65;;;22.80;81.60;;;;;;5015160;28;20697;-79
2022/06/17 08:59:57;;;;;;;3.30;1.33;;;22.90;81.70;;;;;;5014039;28;20179;-79
2022/06/17 09:02:44;;;;;;;3.80;1.45;;;23.00;82.10;;;;;;5015375;28;20610;-79
2022/06/17 09:05:31;;;;;;;4.15;1.58;;;23.10;82.40;;;;;;5015082;28;20189;-79
2022/06/17 09:08:15;;;;;;;4.43;1.63;;;23.10;81.60;;;;;;4994272;28;20190;-79
2022/06/17 09:11:17;;;;;;;2.88;1.70;;;23.10;83.40;;;;;;4995732;28;20169;-79
2022/06/17 09:14:01;;;;;;;4.03;2.60;;;23.20;83.70;;;;;;4995099;28;20246;-79
2022/06/17 09:16:48;;;;;;;2.28;1.33;;;23.20;82.60;;;;;;4995470;28;20207;-81
2022/06/17 09:19:21;;;;;;;2.92;1.50;;;23.60;83.90;;;;;;5010233;28;20183;-79
2022/06/17 09:21:50;;;;;;;3.33;1.83;;;23.60;84.10;;;;;;5013601;28;20567;-78
2022/06/17 09:24:39;;;;;;;3.58;1.50;;;23.70;81.20;;;;;;5014754;28;20168;-79
2022/06/17 09:27:08;;;;;;;3.92;1.30;;;23.80;81.30;;;;;;5013305;28;20194;-79
2022/06/17 09:29:56;;;;;;;1.98;1.30;;;24.10;85.00;;;;;;5014850;28;20262;-80
2022/06/17 09:32:24;;;;;;;4.63;1.33;;;24.10;80.50;;;;;;5013186;28;20266;-79
2022/06/17 09:35:08;;;;;;;2.13;1.30;;;23.90;79.60;;;;;;5014533;28;20190;-79
2022/06/17 09:37:40;;;;;;;1.77;1.27;;;23.90;80.10;;;;;;5014800;28;20563;-79
2022/06/17 09:40:31;;;;;;;2.65;1.35;;;23.70;81.10;;;;;;5014744;28;20497;-79
2022/06/17 09:43:06;;;;;;;2.15;1.52;;;23.60;82.00;;;;;;5014152;28;20182;-79
2022/06/17 09:45:48;;;;;;;2.53;1.30;;;23.50;83.20;;;;;;5013140;28;20629;-79
2022/06/17 09:49:07;;;;;;;4.53;1.58;;;23.50;82.10;;;;;;5014611;28;20186;-79
2022/06/17 09:51:51;;;;;;;2.67;1.20;;;23.60;82.80;;;;;;4956976;28;20184;-78
2022/06/17 09:54:32;;;;;;;2.65;1.20;;;23.80;83.40;;;;;;4972966;28;20207;-79
2022/06/17 09:57:19;;;;;;;3.92;1.40;;;23.90;82.40;;;;;;5005496;28;20227;-79
2022/06/17 09:59:50;;;;;;;3.00;1.25;;;24.10;81.40;;;;;;5014381;28;20177;-79
2022/06/17 10:02:22;;;;;;;2.03;1.35;;;24.20;83.40;;;;;;5014358;28;20167;-79
2022/06/17 10:04:50;;;;;;;6.55;1.48;;;24.40;80.00;;;;;;5012789;28;20571;-78
2022/06/17 10:07:31;;;;;;;7.47;1.70;;;24.40;81.10;;;;;;5012929;28;20183;-78
2022/06/17 10:10:09;;;;;;;1.50;1.10;;;24.10;80.10;;;;;;5014028;28;20231;-79
2022/06/17 10:13:13;;;;;;;5.60;1.10;;;24.20;80.90;;;;;;5013821;28;20210;-78
2022/06/17 10:19:11;;;;;;;2.97;1.30;;;24.20;80.00;;;;;;5014070;28;20198;-78
2022/06/17 10:21:39;;;;;;;3.65;1.05;;;24.20;80.80;;;;;;5014122;28;20187;-78
2022/06/17 10:24:21;;;;;;;2.25;1.25;;;24.30;83.40;;;;;;5014060;28;20171;-79
2022/06/17 10:27:16;;;;;;;1.42;0.98;;;24.30;82.10;;;;;;5013868;28;20699;-79
2022/06/17 10:30:12;;;;;;;3.28;1.35;;;24.30;80.10;;;;;;5013695;28;20207;-78
2022/06/17 10:32:45;;;;;;;1.42;1.17;;;24.30;80.90;;;;;;5013856;28;20160;-79
2022/06/17 10:35:23;;;;;;;3.50;1.00;;;24.40;81.80;;;;;;5013818;28;20170;-78
2022/06/17 10:37:49;;;;;;;1.23;0.90;;;24.40;82.00;;;;;;5012632;28;20167;-79
2022/06/17 10:40:18;;;;;;;5.22;1.38;;;24.60;81.80;;;;;;5013900;28;20558;-79
2022/06/17 10:42:46;;;;;;;1.20;1.10;;;24.90;79.50;;;;;;5012298;28;20180;-79
2022/06/17 10:45:17;;;;;;;2.38;1.23;;;25.00;81.40;;;;;;5014663;28;20266;-79
2022/06/17 10:47:50;;;;;;;4.53;1.38;;;25.20;81.50;;;;;;5017669;28;20191;-79
2022/06/17 10:50:27;;;;;;;4.47;1.65;;;25.20;81.40;;;;;;5017958;28;20510;-79
2022/06/17 10:52:56;;;;;;;3.35;1.20;;;25.10;76.60;;;;;;5016489;28;20177;-79
2022/06/17 10:55:29;;;;;;;2.20;0.90;;;25.00;79.80;;;;;;5017587;28;20156;-78
2022/06/17 10:58:07;;;;;;;1.83;1.13;;;24.80;79.30;;;;;;5017156;28;20300;-78
2022/06/17 11:00:34;;;;;;;2.88;1.20;;;24.80;80.50;;;;;;5017500;28;20171;-79
2022/06/17 11:03:22;;;;;;;2.22;1.27;;;24.80;80.70;;;;;;5017642;28;20554;-79
2022/06/17 11:05:58;;;;;;;1.92;1.10;;;24.80;78.90;;;;;;5017582;28;20178;-78
2022/06/17 11:08:58;;;;;;;2.35;1.17;;;24.80;80.90;;;;;;5017406;28;20167;-78
2022/06/17 11:14:30;;;;;;;1.20;1.10;;;24.70;80.20;;;;;;5017301;28;20179;-79
2022/06/17 11:16:56;;;;;;;2.78;1.05;;;24.90;79.60;;;;;;5017390;28;20167;-78
2022/06/17 11:19:26;;;;;;;3.33;1.15;;;25.10;80.70;;;;;;5017264;28;20179;-79
2022/06/17 11:21:59;;;;;;;2.08;0.98;;;25.30;80.30;;;;;;5017960;28;20183;-79
2022/06/17 11:24:35;;;;;;;3.08;1.10;;;25.60;77.80;;;;;;5016056;28;20183;-79
2022/06/17 11:27:14;;;;;;;4.00;1.25;;;25.80;79.10;;;;;;5017286;28;20614;-79
2022/06/17 11:29:43;;;;;;;2.78;1.23;;;26.10;80.20;;;;;;5016892;28;20246;-79
2022/06/17 11:32:26;;;;;;;1.67;1.02;;;26.30;80.10;;;;;;5016845;28;20179;-80
2022/06/17 11:34:56;;;;;;;3.63;1.10;;;26.40;79.30;;;;;;5017029;28;20160;-78
2022/06/17 11:37:29;;;;;;;1.85;1.10;;;26.50;76.30;;;;;;5016900;28;20202;-78
2022/06/17 11:40:15;;;;;;;1.67;1.00;;;26.50;75.60;;;;;;5016782;28;20167;-79
2022/06/17 11:42:44;;;;;;;2.65;1.17;;;26.50;76.30;;;;;;5017016;28;20578;-78
2022/06/17 11:45:16;;;;;;;2.25;1.10;;;26.70;76.60;;;;;;5015393;28;20214;-79
2022/06/17 11:47:47;;;;;;;0.90;0.82;;;26.80;74.60;;;;;;5016714;28;20202;-78
2022/06/17 11:50:20;;;;;;;1.70;1.00;;;26.90;75.30;;;;;;5016617;28;20290;-78
2022/06/17 11:52:46;;;;;;;2.40;1.10;;;26.80;74.30;;;;;;5015539;28;20179;-79
2022/06/17 11:55:13;;;;;;;1.65;1.10;;;26.60;72.20;;;;;;5015221;28;20174;-79
2022/06/17 11:57:41;;;;;;;2.60;1.00;;;26.40;72.80;;;;;;5014873;28;20254;-79
2022/06/17 12:00:43;;;;;;;2.78;1.33;;;26.40;76.70;;;;;;5016407;28;20234;-79
2022/06/17 12:03:09;;;;;;;2.88;1.10;;;26.50;76.30;;;;;;5014951;28;20225;-79
2022/06/17 12:05:39;;;;;;;2.10;1.00;;;26.90;77.00;;;;;;5016375;28;20518;-79
2022/06/17 12:08:14;;;;;;;1.73;1.00;;;27.10;74.20;;;;;;5016367;28;20203;-79
2022/06/17 12:11:02;;;;;;;3.00;1.02;;;27.30;71.00;;;;;;5015098;28;20186;-77
2022/06/17 12:13:40;;;;;;;2.60;1.65;;;27.10;70.90;;;;;;5014448;28;20180;-78
2022/06/17 12:16:20;;;;;;;1.80;1.05;;;27.20;71.40;;;;;;5016603;28;20175;-78
2022/06/17 12:18:54;;;;;;;1.40;0.90;;;27.30;74.10;;;;;;5016168;28;20178;-78
2022/06/17 12:21:29;;;;;;;2.05;0.90;;;27.50;74.40;;;;;;5015997;28;20171;-78
2022/06/17 12:24:25;;;;;;;3.65;1.10;;;27.70;72.20;;;;;;5015994;28;20194;-78
2022/06/17 12:27:09;;;;;;;1.63;0.88;;;27.70;72.70;;;;;;5016149;28;20198;-78
2022/06/17 12:29:54;;;;;;;2.00;0.90;;;27.70;71.20;;;;;;5015576;28;20217;-78
2022/06/17 12:32:45;;;;;;;1.80;0.98;;;27.70;72.90;;;;;;5016074;28;20167;-78
2022/06/17 12:35:32;;;;;;;2.20;0.90;;;27.50;71.10;;;;;;5015673;28;20258;-78
2022/06/17 12:38:18;;;;;;;3.85;0.80;;;27.40;72.00;;;;;;5014500;28;20171;-78
2022/06/17 12:40:53;;;;;;;1.40;0.88;;;27.30;70.80;;;;;;5015929;28;20166;-78
2022/06/17 12:43:48;;;;;;;1.00;0.80;;;27.30;71.70;;;;;;5014182;28;20171;-79
2022/06/17 12:46:25;;;;;;;2.08;0.80;;;27.50;70.90;;;;;;5015512;28;20171;-78
2022/06/17 12:55:16;;;;;;;0.93;0.70;;;27.40;72.50;;;;;;5011864;28;20186;-78
2022/06/17 12:58:05;;;;;;;1.77;1.02;;;27.10;71.00;;;;;;5013385;28;20725;-78
2022/06/17 13:00:42;;;;;;;1.70;1.00;;;27.00;73.10;;;;;;5011902;28;20186;-78
2022/06/17 13:03:43;;;;;;;3.90;1.00;;;26.70;69.90;;;;;;5012964;28;20178;-78
2022/06/17 13:06:18;;;;;;;1.30;0.85;;;26.50;72.90;;;;;;4994773;28;20249;-78
2022/06/17 13:09:08;;;;;;;1.67;0.90;;;26.20;72.70;;;;;;5012207;28;20207;-77
2022/06/17 13:11:47;;;;;;;2.42;0.98;;;26.20;74.60;;;;;;5012537;28;20512;-78
2022/06/17 13:14:28;;;;;;;2.30;0.90;;;26.20;76.10;;;;;;5012514;28;20187;-78
2022/06/17 13:17:11;;;;;;;1.10;0.75;;;26.20;74.10;;;;;;5014245;28;20190;-78
2022/06/17 13:19:48;;;;;;;2.67;0.90;;;26.30;74.10;;;;;;5015028;28;20602;-78
2022/06/17 13:22:33;;;;;;;2.55;0.82;;;26.30;75.60;;;;;;5010884;28;20512;-78
2022/06/17 13:25:14;;;;;;;3.65;0.90;;;26.50;74.60;;;;;;4999500;28;20216;-78
2022/06/17 13:27:49;;;;;;;3.13;1.20;;;26.50;74.30;;;;;;5010310;28;20221;-79
2022/06/17 13:30:23;;;;;;;2.60;0.90;;;26.50;73.50;;;;;;5013044;28;20605;-79
2022/06/17 13:33:10;;;;;;;1.73;0.82;;;26.60;75.40;;;;;;5014626;28;20158;-79
2022/06/17 13:35:40;;;;;;;3.67;0.70;;;26.50;73.30;;;;;;5012246;28;20198;-79
2022/06/17 13:38:13;;;;;;;0.80;0.65;;;26.50;73.50;;;;;;5014291;28;20233;-78
2022/06/17 13:40:39;;;;;;;2.97;0.85;;;26.50;72.80;;;;;;5010105;28;20210;-80